Terminal Aerodrome Forecast
Issued by NWS

Home | Current Version | Previous Version | Graphics & Text | Print | Product List | Glossary On
Versions: 1 2 3 4 5 6 7 8 9 10 11 12 13 14 15 16
602
FTUS43 KICT 261120
TAFRSL
TAF
KRSL 261120Z 2612/2712 19005KT P6SM BKN080
     FM261700 27007KT P6SM BKN080
     FM261900 36006KT P6SM BKN050
     FM270000 09006KT P6SM BKN080=

USA.gov is the U.S. government's official web portal to all federal, state and local government web resources and services.